sensor_id;sensor_type;location;lat;lon;timestamp;P1;durP1;ratioP1;P2;durP2;ratioP2
48122;SDS011;33907;47.426;18.906;2023-05-10T00:00:21;6.47;;;3.95;;
48122;SDS011;33907;47.426;18.906;2023-05-10T00:03:06;6.43;;;3.72;;
48122;SDS011;33907;47.426;18.906;2023-05-10T00:05:47;8.68;;;4.45;;
48122;SDS011;33907;47.426;18.906;2023-05-10T00:08:38;7.30;;;4.43;;
48122;SDS011;33907;47.426;18.906;2023-05-10T00:11:19;8.80;;;4.47;;
48122;SDS011;33907;47.426;18.906;2023-05-10T00:13:55;8.23;;;5.03;;
48122;SDS011;33907;47.426;18.906;2023-05-10T00:16:48;9.38;;;5.10;;
48122;SDS011;33907;47.426;18.906;2023-05-10T00:19:32;7.53;;;4.22;;
48122;SDS011;33907;47.426;18.906;2023-05-10T00:22:18;7.65;;;4.60;;
48122;SDS011;33907;47.426;18.906;2023-05-10T00:25:20;9.73;;;4.80;;
48122;SDS011;33907;47.426;18.906;2023-05-10T00:28:12;11.32;;;5.47;;
48122;SDS011;33907;47.426;18.906;2023-05-10T00:30:57;7.30;;;4.83;;
48122;SDS011;33907;47.426;18.906;2023-05-10T00:33:48;8.02;;;4.70;;
48122;SDS011;33907;47.426;18.906;2023-05-10T00:36:56;10.05;;;4.85;;
48122;SDS011;33907;47.426;18.906;2023-05-10T00:39:53;7.40;;;5.30;;
48122;SDS011;33907;47.426;18.906;2023-05-10T00:42:40;6.75;;;4.82;;
48122;SDS011;33907;47.426;18.906;2023-05-10T00:45:23;7.75;;;4.75;;
48122;SDS011;33907;47.426;18.906;2023-05-10T00:48:16;14.48;;;4.97;;
48122;SDS011;33907;47.426;18.906;2023-05-10T00:51:14;8.98;;;5.10;;
48122;SDS011;33907;47.426;18.906;2023-05-10T00:54:31;9.02;;;5.45;;
48122;SDS011;33907;47.426;18.906;2023-05-10T00:57:46;8.13;;;5.78;;
48122;SDS011;33907;47.426;18.906;2023-05-10T01:00:46;9.13;;;5.37;;
48122;SDS011;33907;47.426;18.906;2023-05-10T01:03:41;8.40;;;5.82;;
48122;SDS011;33907;47.426;18.906;2023-05-10T01:09:40;9.63;;;6.37;;
48122;SDS011;33907;47.426;18.906;2023-05-10T01:12:47;10.50;;;5.85;;
48122;SDS011;33907;47.426;18.906;2023-05-10T01:15:26;9.32;;;5.75;;
48122;SDS011;33907;47.426;18.906;2023-05-10T01:18:26;8.75;;;5.15;;
48122;SDS011;33907;47.426;18.906;2023-05-10T01:21:17;7.77;;;4.87;;
48122;SDS011;33907;47.426;18.906;2023-05-10T01:33:35;9.48;;;4.70;;
48122;SDS011;33907;47.426;18.906;2023-05-10T01:36:35;8.80;;;5.45;;
48122;SDS011;33907;47.426;18.906;2023-05-10T01:42:29;8.95;;;5.03;;
48122;SDS011;33907;47.426;18.906;2023-05-10T01:49:23;8.70;;;5.57;;
48122;SDS011;33907;47.426;18.906;2023-05-10T01:52:10;8.93;;;6.18;;
48122;SDS011;33907;47.426;18.906;2023-05-10T01:55:00;7.43;;;5.62;;
48122;SDS011;33907;47.426;18.906;2023-05-10T01:57:43;8.02;;;5.85;;
48122;SDS011;33907;47.426;18.906;2023-05-10T02:00:35;9.98;;;6.62;;
48122;SDS011;33907;47.426;18.906;2023-05-10T02:06:10;10.50;;;5.85;;
48122;SDS011;33907;47.426;18.906;2023-05-10T02:09:44;8.30;;;5.57;;
48122;SDS011;33907;47.426;18.906;2023-05-10T02:13:07;9.13;;;5.65;;
48122;SDS011;33907;47.426;18.906;2023-05-10T02:15:54;8.23;;;6.25;;
48122;SDS011;33907;47.426;18.906;2023-05-10T02:18:46;10.50;;;6.28;;
48122;SDS011;33907;47.426;18.906;2023-05-10T02:21:46;8.10;;;5.53;;
48122;SDS011;33907;47.426;18.906;2023-05-10T02:24:44;9.95;;;5.75;;
48122;SDS011;33907;47.426;18.906;2023-05-10T02:27:42;10.68;;;6.30;;
48122;SDS011;33907;47.426;18.906;2023-05-10T02:30:47;7.75;;;5.80;;
48122;SDS011;33907;47.426;18.906;2023-05-10T02:33:38;8.68;;;5.97;;
48122;SDS011;33907;47.426;18.906;2023-05-10T02:36:23;7.78;;;5.18;;
48122;SDS011;33907;47.426;18.906;2023-05-10T02:39:23;9.80;;;6.10;;
48122;SDS011;33907;47.426;18.906;2023-05-10T02:42:15;7.68;;;5.68;;
48122;SDS011;33907;47.426;18.906;2023-05-10T02:45:00;11.12;;;5.28;;
48122;SDS011;33907;47.426;18.906;2023-05-10T02:48:16;11.07;;;5.78;;
48122;SDS011;33907;47.426;18.906;2023-05-10T02:51:44;8.80;;;5.87;;
48122;SDS011;33907;47.426;18.906;2023-05-10T02:54:32;6.95;;;4.47;;
48122;SDS011;33907;47.426;18.906;2023-05-10T02:57:43;8.77;;;5.12;;
48122;SDS011;33907;47.426;18.906;2023-05-10T03:00:37;6.90;;;4.62;;
48122;SDS011;33907;47.426;18.906;2023-05-10T03:03:33;8.45;;;4.82;;
48122;SDS011;33907;47.426;18.906;2023-05-10T03:06:20;6.57;;;4.62;;
48122;SDS011;33907;47.426;18.906;2023-05-10T03:09:21;7.40;;;4.95;;
48122;SDS011;33907;47.426;18.906;2023-05-10T03:18:50;9.05;;;6.03;;
48122;SDS011;33907;47.426;18.906;2023-05-10T03:21:49;7.12;;;5.28;;
48122;SDS011;33907;47.426;18.906;2023-05-10T03:24:59;8.38;;;6.35;;
48122;SDS011;33907;47.426;18.906;2023-05-10T03:28:10;10.65;;;5.82;;
48122;SDS011;33907;47.426;18.906;2023-05-10T03:31:06;9.43;;;5.00;;
48122;SDS011;33907;47.426;18.906;2023-05-10T03:36:57;7.05;;;5.32;;
48122;SDS011;33907;47.426;18.906;2023-05-10T03:39:51;10.75;;;6.05;;
48122;SDS011;33907;47.426;18.906;2023-05-10T03:43:06;10.05;;;5.57;;
48122;SDS011;33907;47.426;18.906;2023-05-10T03:46:46;6.28;;;4.90;;
48122;SDS011;33907;47.426;18.906;2023-05-10T03:49:59;8.13;;;5.70;;
48122;SDS011;33907;47.426;18.906;2023-05-10T03:52:54;9.43;;;5.60;;
48122;SDS011;33907;47.426;18.906;2023-05-10T03:55:52;7.62;;;4.80;;
48122;SDS011;33907;47.426;18.906;2023-05-10T03:58:44;7.15;;;4.90;;
48122;SDS011;33907;47.426;18.906;2023-05-10T04:01:23;7.60;;;4.97;;
48122;SDS011;33907;47.426;18.906;2023-05-10T04:04:24;8.70;;;5.68;;
48122;SDS011;33907;47.426;18.906;2023-05-10T04:07:28;10.48;;;5.57;;
48122;SDS011;33907;47.426;18.906;2023-05-10T04:10:20;10.93;;;5.90;;
48122;SDS011;33907;47.426;18.906;2023-05-10T04:13:30;10.05;;;6.00;;
48122;SDS011;33907;47.426;18.906;2023-05-10T04:16:28;8.13;;;6.07;;
48122;SDS011;33907;47.426;18.906;2023-05-10T04:19:16;9.32;;;5.53;;
48122;SDS011;33907;47.426;18.906;2023-05-10T04:25:08;7.50;;;5.60;;
48122;SDS011;33907;47.426;18.906;2023-05-10T04:27:55;10.45;;;6.22;;
48122;SDS011;33907;47.426;18.906;2023-05-10T04:31:22;8.65;;;5.18;;
48122;SDS011;33907;47.426;18.906;2023-05-10T04:34:10;10.55;;;5.75;;
48122;SDS011;33907;47.426;18.906;2023-05-10T04:37:21;8.52;;;5.28;;
48122;SDS011;33907;47.426;18.906;2023-05-10T04:40:08;7.60;;;4.90;;
48122;SDS011;33907;47.426;18.906;2023-05-10T04:42:57;7.82;;;4.70;;
48122;SDS011;33907;47.426;18.906;2023-05-10T04:46:07;8.60;;;5.43;;
48122;SDS011;33907;47.426;18.906;2023-05-10T04:49:08;6.97;;;4.95;;
48122;SDS011;33907;47.426;18.906;2023-05-10T04:52:05;9.30;;;5.10;;
48122;SDS011;33907;47.426;18.906;2023-05-10T04:54:45;7.20;;;4.47;;
48122;SDS011;33907;47.426;18.906;2023-05-10T04:57:31;8.23;;;5.53;;
48122;SDS011;33907;47.426;18.906;2023-05-10T05:00:08;10.20;;;5.65;;
48122;SDS011;33907;47.426;18.906;2023-05-10T05:03:04;8.95;;;5.12;;
48122;SDS011;33907;47.426;18.906;2023-05-10T05:09:10;9.32;;;5.10;;
48122;SDS011;33907;47.426;18.906;2023-05-10T05:12:03;9.45;;;4.97;;
48122;SDS011;33907;47.426;18.906;2023-05-10T05:15:01;8.93;;;5.22;;
48122;SDS011;33907;47.426;18.906;2023-05-10T05:17:45;8.43;;;5.78;;
48122;SDS011;33907;47.426;18.906;2023-05-10T05:20:44;8.63;;;5.07;;
48122;SDS011;33907;47.426;18.906;2023-05-10T05:23:24;9.07;;;5.20;;
48122;SDS011;33907;47.426;18.906;2023-05-10T05:26:33;7.37;;;5.33;;
48122;SDS011;33907;47.426;18.906;2023-05-10T05:29:13;8.75;;;5.62;;
48122;SDS011;33907;47.426;18.906;2023-05-10T05:32:07;9.00;;;5.37;;
48122;SDS011;33907;47.426;18.906;2023-05-10T05:34:52;9.52;;;4.62;;
48122;SDS011;33907;47.426;18.906;2023-05-10T05:37:36;8.68;;;5.30;;
48122;SDS011;33907;47.426;18.906;2023-05-10T05:40:20;9.18;;;5.10;;
48122;SDS011;33907;47.426;18.906;2023-05-10T05:43:06;9.60;;;5.15;;
48122;SDS011;33907;47.426;18.906;2023-05-10T05:45:48;10.48;;;4.95;;
48122;SDS011;33907;47.426;18.906;2023-05-10T05:48:22;9.68;;;4.90;;
48122;SDS011;33907;47.426;18.906;2023-05-10T05:50:57;8.93;;;4.10;;
48122;SDS011;33907;47.426;18.906;2023-05-10T05:53:39;7.22;;;4.62;;
48122;SDS011;33907;47.426;18.906;2023-05-10T05:56:13;5.62;;;3.58;;
48122;SDS011;33907;47.426;18.906;2023-05-10T05:58:52;8.77;;;4.90;;
48122;SDS011;33907;47.426;18.906;2023-05-10T06:01:41;7.72;;;3.90;;
48122;SDS011;33907;47.426;18.906;2023-05-10T06:04:15;6.40;;;3.85;;
48122;SDS011;33907;47.426;18.906;2023-05-10T06:07:14;9.65;;;5.28;;
48122;SDS011;33907;47.426;18.906;2023-05-10T06:10:08;7.15;;;4.93;;
48122;SDS011;33907;47.426;18.906;2023-05-10T06:13:10;7.53;;;5.25;;
48122;SDS011;33907;47.426;18.906;2023-05-10T06:15:52;13.27;;;5.70;;
48122;SDS011;33907;47.426;18.906;2023-05-10T06:19:39;11.32;;;4.45;;
48122;SDS011;33907;47.426;18.906;2023-05-10T06:25:01;8.88;;;4.97;;
48122;SDS011;33907;47.426;18.906;2023-05-10T06:27:38;8.13;;;4.35;;
48122;SDS011;33907;47.426;18.906;2023-05-10T06:30:22;6.05;;;3.92;;
48122;SDS011;33907;47.426;18.906;2023-05-10T06:33:01;8.25;;;4.90;;
48122;SDS011;33907;47.426;18.906;2023-05-10T06:35:37;8.02;;;4.78;;
48122;SDS011;33907;47.426;18.906;2023-05-10T06:41:32;9.05;;;4.75;;
48122;SDS011;33907;47.426;18.906;2023-05-10T06:44:48;8.45;;;4.78;;
48122;SDS011;33907;47.426;18.906;2023-05-10T06:47:30;8.68;;;4.95;;
48122;SDS011;33907;47.426;18.906;2023-05-10T06:50:19;8.40;;;5.40;;
48122;SDS011;33907;47.426;18.906;2023-05-10T06:53:30;7.60;;;5.03;;
48122;SDS011;33907;47.426;18.906;2023-05-10T06:59:59;8.95;;;4.70;;
48122;SDS011;33907;47.426;18.906;2023-05-10T07:02:37;8.32;;;4.65;;
48122;SDS011;33907;47.426;18.906;2023-05-10T07:05:13;7.80;;;5.18;;
48122;SDS011;33907;47.426;18.906;2023-05-10T07:07:56;7.62;;;4.78;;
48122;SDS011;33907;47.426;18.906;2023-05-10T07:10:48;8.50;;;4.78;;
48122;SDS011;33907;47.426;18.906;2023-05-10T07:13:21;7.78;;;4.82;;
48122;SDS011;33907;47.426;18.906;2023-05-10T07:16:02;8.25;;;5.37;;
48122;SDS011;33907;47.426;18.906;2023-05-10T07:19:31;10.18;;;5.07;;
48122;SDS011;33907;47.426;18.906;2023-05-10T07:25:45;7.87;;;4.72;;
48122;SDS011;33907;47.426;18.906;2023-05-10T07:29:04;9.70;;;5.53;;
48122;SDS011;33907;47.426;18.906;2023-05-10T07:31:55;10.10;;;4.78;;
48122;SDS011;33907;47.426;18.906;2023-05-10T07:34:59;8.60;;;5.05;;
48122;SDS011;33907;47.426;18.906;2023-05-10T07:37:36;9.50;;;5.12;;
48122;SDS011;33907;47.426;18.906;2023-05-10T07:40:12;9.93;;;4.87;;
48122;SDS011;33907;47.426;18.906;2023-05-10T07:42:57;6.57;;;4.57;;
48122;SDS011;33907;47.426;18.906;2023-05-10T07:45:44;7.32;;;4.43;;
48122;SDS011;33907;47.426;18.906;2023-05-10T07:48:52;8.32;;;4.60;;
48122;SDS011;33907;47.426;18.906;2023-05-10T07:51:27;5.40;;;3.50;;
48122;SDS011;33907;47.426;18.906;2023-05-10T07:54:04;7.12;;;3.87;;
48122;SDS011;33907;47.426;18.906;2023-05-10T07:56:46;7.47;;;3.72;;
48122;SDS011;33907;47.426;18.906;2023-05-10T07:59:17;6.65;;;4.10;;
48122;SDS011;33907;47.426;18.906;2023-05-10T08:01:55;7.22;;;4.18;;
48122;SDS011;33907;47.426;18.906;2023-05-10T08:04:53;10.43;;;3.62;;
48122;SDS011;33907;47.426;18.906;2023-05-10T08:07:35;6.20;;;3.90;;
48122;SDS011;33907;47.426;18.906;2023-05-10T08:10:15;8.25;;;4.82;;
48122;SDS011;33907;47.426;18.906;2023-05-10T08:12:54;8.18;;;4.18;;
48122;SDS011;33907;47.426;18.906;2023-05-10T08:15:43;6.10;;;3.62;;
48122;SDS011;33907;47.426;18.906;2023-05-10T08:18:49;6.35;;;3.45;;
48122;SDS011;33907;47.426;18.906;2023-05-10T08:21:45;5.70;;;3.45;;
48122;SDS011;33907;47.426;18.906;2023-05-10T08:24:24;7.20;;;3.72;;
48122;SDS011;33907;47.426;18.906;2023-05-10T08:26:59;6.43;;;3.70;;
48122;SDS011;33907;47.426;18.906;2023-05-10T08:29:34;7.60;;;3.62;;
48122;SDS011;33907;47.426;18.906;2023-05-10T08:32:50;6.57;;;3.70;;
48122;SDS011;33907;47.426;18.906;2023-05-10T08:35:42;8.05;;;3.90;;
48122;SDS011;33907;47.426;18.906;2023-05-10T08:38:24;10.25;;;3.50;;
48122;SDS011;33907;47.426;18.906;2023-05-10T08:40:58;5.30;;;3.12;;
48122;SDS011;33907;47.426;18.906;2023-05-10T08:43:56;4.78;;;3.20;;
48122;SDS011;33907;47.426;18.906;2023-05-10T08:49:35;6.55;;;2.95;;
48122;SDS011;33907;47.426;18.906;2023-05-10T08:52:22;7.00;;;3.72;;
48122;SDS011;33907;47.426;18.906;2023-05-10T08:54:56;10.43;;;3.35;;
48122;SDS011;33907;47.426;18.906;2023-05-10T08:57:26;6.87;;;3.40;;
48122;SDS011;33907;47.426;18.906;2023-05-10T08:59:56;11.30;;;3.97;;
48122;SDS011;33907;47.426;18.906;2023-05-10T09:02:39;10.27;;;3.87;;
48122;SDS011;33907;47.426;18.906;2023-05-10T09:09:54;5.85;;;3.03;;
48122;SDS011;33907;47.426;18.906;2023-05-10T09:12:36;6.78;;;3.28;;
48122;SDS011;33907;47.426;18.906;2023-05-10T09:15:19;6.18;;;3.08;;
48122;SDS011;33907;47.426;18.906;2023-05-10T09:18:06;7.43;;;3.37;;
48122;SDS011;33907;47.426;18.906;2023-05-10T09:20:44;5.70;;;3.37;;
48122;SDS011;33907;47.426;18.906;2023-05-10T09:23:22;8.43;;;3.10;;
48122;SDS011;33907;47.426;18.906;2023-05-10T09:26:04;4.75;;;2.87;;
48122;SDS011;33907;47.426;18.906;2023-05-10T09:28:56;6.35;;;3.20;;
48122;SDS011;33907;47.426;18.906;2023-05-10T09:31:50;6.45;;;3.15;;
48122;SDS011;33907;47.426;18.906;2023-05-10T09:34:41;5.03;;;3.05;;
48122;SDS011;33907;47.426;18.906;2023-05-10T09:37:29;6.22;;;3.00;;
48122;SDS011;33907;47.426;18.906;2023-05-10T09:40:14;5.43;;;2.85;;
48122;SDS011;33907;47.426;18.906;2023-05-10T09:43:17;6.30;;;3.03;;
48122;SDS011;33907;47.426;18.906;2023-05-10T09:45:58;6.43;;;2.97;;
48122;SDS011;33907;47.426;18.906;2023-05-10T09:48:47;4.55;;;2.60;;
48122;SDS011;33907;47.426;18.906;2023-05-10T09:51:25;6.28;;;3.35;;
48122;SDS011;33907;47.426;18.906;2023-05-10T09:54:16;6.60;;;3.08;;
48122;SDS011;33907;47.426;18.906;2023-05-10T09:56:44;6.10;;;3.28;;
48122;SDS011;33907;47.426;18.906;2023-05-10T09:59:14;9.38;;;3.62;;
48122;SDS011;33907;47.426;18.906;2023-05-10T10:01:49;4.87;;;3.22;;
48122;SDS011;33907;47.426;18.906;2023-05-10T10:04:23;7.65;;;3.65;;
48122;SDS011;33907;47.426;18.906;2023-05-10T10:06:58;5.60;;;3.00;;
48122;SDS011;33907;47.426;18.906;2023-05-10T10:09:35;6.18;;;2.87;;
48122;SDS011;33907;47.426;18.906;2023-05-10T10:12:25;9.32;;;3.83;;
48122;SDS011;33907;47.426;18.906;2023-05-10T10:15:02;7.40;;;3.00;;
48122;SDS011;33907;47.426;18.906;2023-05-10T10:18:01;5.97;;;2.90;;
48122;SDS011;33907;47.426;18.906;2023-05-10T10:20:38;6.07;;;3.20;;
48122;SDS011;33907;47.426;18.906;2023-05-10T10:23:17;6.37;;;3.03;;
48122;SDS011;33907;47.426;18.906;2023-05-10T10:26:03;5.55;;;3.62;;
48122;SDS011;33907;47.426;18.906;2023-05-10T10:32:08;7.22;;;3.08;;
48122;SDS011;33907;47.426;18.906;2023-05-10T10:35:25;5.90;;;2.70;;
48122;SDS011;33907;47.426;18.906;2023-05-10T10:38:10;4.72;;;2.95;;
48122;SDS011;33907;47.426;18.906;2023-05-10T10:41:32;5.70;;;2.65;;
48122;SDS011;33907;47.426;18.906;2023-05-10T10:50:55;5.62;;;2.53;;
48122;SDS011;33907;47.426;18.906;2023-05-10T10:53:52;5.47;;;2.20;;
48122;SDS011;33907;47.426;18.906;2023-05-10T10:56:30;4.68;;;2.10;;
48122;SDS011;33907;47.426;18.906;2023-05-10T10:59:07;4.75;;;2.50;;
48122;SDS011;33907;47.426;18.906;2023-05-10T11:01:51;4.22;;;2.37;;
48122;SDS011;33907;47.426;18.906;2023-05-10T11:04:25;4.25;;;2.12;;
48122;SDS011;33907;47.426;18.906;2023-05-10T11:07:17;5.22;;;2.03;;
48122;SDS011;33907;47.426;18.906;2023-05-10T11:09:56;5.90;;;1.90;;
48122;SDS011;33907;47.426;18.906;2023-05-10T11:13:10;6.82;;;2.20;;
48122;SDS011;33907;47.426;18.906;2023-05-10T11:15:50;3.08;;;1.60;;
48122;SDS011;33907;47.426;18.906;2023-05-10T11:18:29;6.07;;;2.00;;
48122;SDS011;33907;47.426;18.906;2023-05-10T11:21:04;5.73;;;2.13;;
48122;SDS011;33907;47.426;18.906;2023-05-10T11:23:56;4.70;;;1.90;;
48122;SDS011;33907;47.426;18.906;2023-05-10T11:26:40;3.62;;;1.95;;
48122;SDS011;33907;47.426;18.906;2023-05-10T11:29:34;4.20;;;2.00;;
48122;SDS011;33907;47.426;18.906;2023-05-10T11:32:08;5.22;;;1.95;;
48122;SDS011;33907;47.426;18.906;2023-05-10T11:34:59;4.15;;;2.10;;
48122;SDS011;33907;47.426;18.906;2023-05-10T11:37:33;5.70;;;2.17;;
48122;SDS011;33907;47.426;18.906;2023-05-10T11:40:34;6.00;;;2.25;;
48122;SDS011;33907;47.426;18.906;2023-05-10T11:43:10;4.43;;;2.00;;
48122;SDS011;33907;47.426;18.906;2023-05-10T11:45:45;4.10;;;2.22;;
48122;SDS011;33907;47.426;18.906;2023-05-10T11:48:16;3.92;;;1.60;;
48122;SDS011;33907;47.426;18.906;2023-05-10T11:50:58;6.50;;;2.05;;
48122;SDS011;33907;47.426;18.906;2023-05-10T11:53:32;3.92;;;1.92;;
48122;SDS011;33907;47.426;18.906;2023-05-10T11:56:11;4.32;;;1.80;;
48122;SDS011;33907;47.426;18.906;2023-05-10T11:58:57;4.60;;;1.60;;
48122;SDS011;33907;47.426;18.906;2023-05-10T12:01:26;5.68;;;1.73;;
48122;SDS011;33907;47.426;18.906;2023-05-10T12:04:04;3.72;;;1.80;;
48122;SDS011;33907;47.426;18.906;2023-05-10T12:06:39;5.03;;;1.85;;
48122;SDS011;33907;47.426;18.906;2023-05-10T12:09:12;3.67;;;2.00;;
48122;SDS011;33907;47.426;18.906;2023-05-10T12:11:44;5.00;;;2.10;;
48122;SDS011;33907;47.426;18.906;2023-05-10T12:14:22;3.03;;;1.55;;
48122;SDS011;33907;47.426;18.906;2023-05-10T12:17:13;6.40;;;1.85;;
48122;SDS011;33907;47.426;18.906;2023-05-10T12:19:54;4.62;;;1.70;;
48122;SDS011;33907;47.426;18.906;2023-05-10T12:23:05;4.95;;;1.98;;
48122;SDS011;33907;47.426;18.906;2023-05-10T12:26:03;6.55;;;2.08;;
48122;SDS011;33907;47.426;18.906;2023-05-10T12:28:37;5.47;;;1.92;;
48122;SDS011;33907;47.426;18.906;2023-05-10T12:31:28;3.75;;;1.45;;
48122;SDS011;33907;47.426;18.906;2023-05-10T12:34:18;4.07;;;1.70;;
48122;SDS011;33907;47.426;18.906;2023-05-10T12:37:21;8.63;;;2.20;;
48122;SDS011;33907;47.426;18.906;2023-05-10T12:40:00;4.10;;;1.60;;
48122;SDS011;33907;47.426;18.906;2023-05-10T12:42:51;5.07;;;1.95;;
48122;SDS011;33907;47.426;18.906;2023-05-10T12:49:33;6.20;;;2.60;;
48122;SDS011;33907;47.426;18.906;2023-05-10T12:52:43;10.70;;;4.00;;
48122;SDS011;33907;47.426;18.906;2023-05-10T12:55:29;7.60;;;2.25;;
48122;SDS011;33907;47.426;18.906;2023-05-10T12:58:26;5.07;;;2.37;;
48122;SDS011;33907;47.426;18.906;2023-05-10T13:02:11;6.60;;;2.30;;
48122;SDS011;33907;47.426;18.906;2023-05-10T13:05:26;4.85;;;1.73;;
48122;SDS011;33907;47.426;18.906;2023-05-10T13:08:27;6.15;;;1.70;;
48122;SDS011;33907;47.426;18.906;2023-05-10T13:12:08;5.30;;;1.70;;
48122;SDS011;33907;47.426;18.906;2023-05-10T13:15:30;3.53;;;1.55;;
48122;SDS011;33907;47.426;18.906;2023-05-10T13:18:58;8.32;;;1.60;;
48122;SDS011;33907;47.426;18.906;2023-05-10T13:22:35;4.60;;;1.80;;
48122;SDS011;33907;47.426;18.906;2023-05-10T13:26:21;4.80;;;1.67;;
48122;SDS011;33907;47.426;18.906;2023-05-10T13:29:10;7.75;;;1.92;;
48122;SDS011;33907;47.426;18.906;2023-05-10T13:32:24;5.97;;;2.10;;
48122;SDS011;33907;47.426;18.906;2023-05-10T13:35:53;3.55;;;1.60;;
48122;SDS011;33907;47.426;18.906;2023-05-10T13:38:51;4.82;;;1.70;;
48122;SDS011;33907;47.426;18.906;2023-05-10T13:41:30;3.03;;;1.50;;
48122;SDS011;33907;47.426;18.906;2023-05-10T13:45:00;2.42;;;1.50;;
48122;SDS011;33907;47.426;18.906;2023-05-10T13:47:44;5.47;;;1.42;;
48122;SDS011;33907;47.426;18.906;2023-05-10T13:50:56;4.95;;;1.45;;
48122;SDS011;33907;47.426;18.906;2023-05-10T13:54:24;4.57;;;1.55;;
48122;SDS011;33907;47.426;18.906;2023-05-10T14:01:00;3.83;;;1.25;;
48122;SDS011;33907;47.426;18.906;2023-05-10T14:03:45;4.70;;;1.50;;
48122;SDS011;33907;47.426;18.906;2023-05-10T14:06:13;4.93;;;1.45;;
48122;SDS011;33907;47.426;18.906;2023-05-10T14:09:47;4.90;;;1.50;;
48122;SDS011;33907;47.426;18.906;2023-05-10T14:12:26;4.30;;;1.58;;
48122;SDS011;33907;47.426;18.906;2023-05-10T14:15:04;4.43;;;1.60;;
48122;SDS011;33907;47.426;18.906;2023-05-10T14:18:04;4.28;;;1.40;;
48122;SDS011;33907;47.426;18.906;2023-05-10T14:21:24;4.12;;;1.50;;
48122;SDS011;33907;47.426;18.906;2023-05-10T14:24:28;4.57;;;1.58;;
48122;SDS011;33907;47.426;18.906;2023-05-10T14:27:31;4.75;;;1.50;;
48122;SDS011;33907;47.426;18.906;2023-05-10T14:30:11;5.53;;;1.60;;
48122;SDS011;33907;47.426;18.906;2023-05-10T14:32:55;11.00;;;2.33;;
48122;SDS011;33907;47.426;18.906;2023-05-10T14:35:49;6.10;;;1.50;;
48122;SDS011;33907;47.426;18.906;2023-05-10T14:38:49;5.12;;;1.85;;
48122;SDS011;33907;47.426;18.906;2023-05-10T14:45:53;3.80;;;1.45;;
48122;SDS011;33907;47.426;18.906;2023-05-10T14:48:53;2.83;;;1.20;;
48122;SDS011;33907;47.426;18.906;2023-05-10T14:51:59;2.92;;;1.25;;
48122;SDS011;33907;47.426;18.906;2023-05-10T14:54:45;3.15;;;1.30;;
48122;SDS011;33907;47.426;18.906;2023-05-10T14:58:29;5.22;;;1.50;;
48122;SDS011;33907;47.426;18.906;2023-05-10T15:02:19;5.90;;;1.52;;
48122;SDS011;33907;47.426;18.906;2023-05-10T15:08:50;2.90;;;1.20;;
48122;SDS011;33907;47.426;18.906;2023-05-10T15:14:49;4.47;;;1.62;;
48122;SDS011;33907;47.426;18.906;2023-05-10T15:17:42;7.62;;;1.60;;
48122;SDS011;33907;47.426;18.906;2023-05-10T15:21:07;4.55;;;1.60;;
48122;SDS011;33907;47.426;18.906;2023-05-10T15:24:24;4.07;;;1.35;;
48122;SDS011;33907;47.426;18.906;2023-05-10T15:27:30;4.95;;;1.33;;
48122;SDS011;33907;47.426;18.906;2023-05-10T15:31:05;4.95;;;1.02;;
48122;SDS011;33907;47.426;18.906;2023-05-10T15:34:03;5.05;;;1.50;;
48122;SDS011;33907;47.426;18.906;2023-05-10T15:37:49;4.80;;;1.27;;
48122;SDS011;33907;47.426;18.906;2023-05-10T15:40:58;3.72;;;1.27;;
48122;SDS011;33907;47.426;18.906;2023-05-10T15:51:05;3.37;;;1.30;;
48122;SDS011;33907;47.426;18.906;2023-05-10T15:58:08;2.97;;;1.48;;
48122;SDS011;33907;47.426;18.906;2023-05-10T16:01:13;3.20;;;1.20;;
48122;SDS011;33907;47.426;18.906;2023-05-10T16:04:30;3.62;;;1.25;;
48122;SDS011;33907;47.426;18.906;2023-05-10T16:07:09;5.87;;;1.25;;
48122;SDS011;33907;47.426;18.906;2023-05-10T16:10:43;6.55;;;1.80;;
48122;SDS011;33907;47.426;18.906;2023-05-10T16:13:25;3.25;;;1.40;;
48122;SDS011;33907;47.426;18.906;2023-05-10T16:16:14;3.40;;;1.37;;
48122;SDS011;33907;47.426;18.906;2023-05-10T16:19:30;4.18;;;1.20;;
48122;SDS011;33907;47.426;18.906;2023-05-10T16:22:16;2.33;;;1.27;;
48122;SDS011;33907;47.426;18.906;2023-05-10T16:24:53;4.62;;;1.12;;
48122;SDS011;33907;47.426;18.906;2023-05-10T16:28:37;2.62;;;1.30;;
48122;SDS011;33907;47.426;18.906;2023-05-10T16:32:05;3.67;;;1.00;;
48122;SDS011;33907;47.426;18.906;2023-05-10T16:35:02;4.37;;;1.30;;
48122;SDS011;33907;47.426;18.906;2023-05-10T16:37:53;5.28;;;1.23;;
48122;SDS011;33907;47.426;18.906;2023-05-10T16:40:36;3.67;;;1.50;;
48122;SDS011;33907;47.426;18.906;2023-05-10T16:43:13;3.20;;;1.30;;
48122;SDS011;33907;47.426;18.906;2023-05-10T16:45:52;7.43;;;1.50;;
48122;SDS011;33907;47.426;18.906;2023-05-10T16:48:46;3.50;;;1.12;;
48122;SDS011;33907;47.426;18.906;2023-05-10T16:51:29;7.12;;;1.50;;
48122;SDS011;33907;47.426;18.906;2023-05-10T16:57:06;3.75;;;1.40;;
48122;SDS011;33907;47.426;18.906;2023-05-10T17:00:09;3.12;;;1.10;;
48122;SDS011;33907;47.426;18.906;2023-05-10T17:03:31;3.67;;;1.20;;
48122;SDS011;33907;47.426;18.906;2023-05-10T17:07:10;3.85;;;1.40;;
48122;SDS011;33907;47.426;18.906;2023-05-10T17:10:17;5.37;;;1.62;;
48122;SDS011;33907;47.426;18.906;2023-05-10T17:13:07;3.95;;;1.33;;
48122;SDS011;33907;47.426;18.906;2023-05-10T17:16:05;3.45;;;1.55;;
48122;SDS011;33907;47.426;18.906;2023-05-10T17:18:53;3.50;;;1.42;;
48122;SDS011;33907;47.426;18.906;2023-05-10T17:21:47;4.37;;;1.52;;
48122;SDS011;33907;47.426;18.906;2023-05-10T17:24:39;6.82;;;1.73;;
48122;SDS011;33907;47.426;18.906;2023-05-10T17:31:14;4.55;;;1.77;;
48122;SDS011;33907;47.426;18.906;2023-05-10T17:34:04;5.40;;;1.85;;
48122;SDS011;33907;47.426;18.906;2023-05-10T17:37:17;5.65;;;2.10;;
48122;SDS011;33907;47.426;18.906;2023-05-10T17:40:32;7.62;;;1.70;;
48122;SDS011;33907;47.426;18.906;2023-05-10T17:43:34;6.10;;;1.92;;
48122;SDS011;33907;47.426;18.906;2023-05-10T17:46:46;4.95;;;1.90;;
48122;SDS011;33907;47.426;18.906;2023-05-10T17:54:25;4.50;;;1.92;;
48122;SDS011;33907;47.426;18.906;2023-05-10T18:01:17;5.53;;;2.00;;
48122;SDS011;33907;47.426;18.906;2023-05-10T18:05:33;5.70;;;2.28;;
48122;SDS011;33907;47.426;18.906;2023-05-10T18:12:21;5.55;;;1.80;;
48122;SDS011;33907;47.426;18.906;2023-05-10T18:19:32;5.60;;;2.20;;
48122;SDS011;33907;47.426;18.906;2023-05-10T18:23:03;5.53;;;2.35;;
48122;SDS011;33907;47.426;18.906;2023-05-10T18:26:33;5.00;;;2.03;;
48122;SDS011;33907;47.426;18.906;2023-05-10T18:30:26;4.60;;;2.12;;
48122;SDS011;33907;47.426;18.906;2023-05-10T18:37:42;5.30;;;2.45;;
48122;SDS011;33907;47.426;18.906;2023-05-10T18:49:17;6.03;;;2.20;;
48122;SDS011;33907;47.426;18.906;2023-05-10T19:14:28;6.00;;;2.53;;
48122;SDS011;33907;47.426;18.906;2023-05-10T19:17:33;4.97;;;2.50;;
48122;SDS011;33907;47.426;18.906;2023-05-10T19:20:58;5.37;;;2.20;;
48122;SDS011;33907;47.426;18.906;2023-05-10T19:24:56;4.60;;;2.17;;
48122;SDS011;33907;47.426;18.906;2023-05-10T19:28:35;7.90;;;2.30;;
48122;SDS011;33907;47.426;18.906;2023-05-10T19:35:33;6.32;;;2.62;;
48122;SDS011;33907;47.426;18.906;2023-05-10T19:38:30;4.10;;;1.67;;
48122;SDS011;33907;47.426;18.906;2023-05-10T19:41:36;4.82;;;1.65;;
48122;SDS011;33907;47.426;18.906;2023-05-10T19:44:36;4.47;;;1.80;;
48122;SDS011;33907;47.426;18.906;2023-05-10T19:47:31;5.12;;;2.05;;
48122;SDS011;33907;47.426;18.906;2023-05-10T19:50:31;3.20;;;1.62;;
48122;SDS011;33907;47.426;18.906;2023-05-10T19:53:32;4.10;;;2.08;;
48122;SDS011;33907;47.426;18.906;2023-05-10T20:00:03;3.85;;;1.77;;